Time;durP1;ratioP1;P1;durP2;ratioP2;P2;SDS_P1;SDS_P2;PMS_P1;PMS_P2;Temp;Humidity;BMP_temperature;BMP_pressure;BME280_temperature;BME280_humidity;BME280_pressure;Samples;Min_cycle;Max_cycle;Signal;HPM_P1;HPM_P2
2022/11/14 00:01:14;;;;;;;;;;;;;;;16.10;55.67;102050.78;5047831;28;1069;-55
2022/11/14 00:03:57;;;;;;;;;;;;;;;17.71;52.29;102057.28;5058572;28;1124;-55
2022/11/14 00:06:41;;;;;;;;;;;;;;;16.68;54.68;102051.78;5058572;28;1100;-56
2022/11/14 00:09:26;;;;;;;;;;;;;;;16.29;55.27;102046.84;5045275;28;935;-56
2022/11/14 00:12:10;;;;;;;;;;;;;;;16.10;55.45;102050.78;5058287;28;2378;-55
2022/11/14 00:14:54;;;;;;;;;;;;;;;17.67;52.40;102047.88;5058450;28;1140;-56
2022/11/14 00:17:38;;;;;;;;;;;;;;;16.73;54.71;102054.63;5058402;28;1057;-55
2022/11/14 00:20:22;;;;;;;;;;;;;;;16.35;55.23;102048.59;5051248;28;962;-55
2022/11/14 00:23:06;;;;;;;;;;;;;;;16.10;55.20;102045.31;5045693;28;1066;-54
2022/11/14 00:25:50;;;;;;;;;;;;;;;17.28;53.40;102039.50;5058254;28;1092;-55
2022/11/14 00:28:34;;;;;;;;;;;;;;;16.77;54.55;102045.66;5058589;28;1140;-56
2022/11/14 00:31:18;;;;;;;;;;;;;;;16.28;55.35;102034.19;5057724;28;1902;-54
2022/11/14 00:34:02;;;;;;;;;;;;;;;16.06;55.07;102048.53;5058254;28;1100;-53
2022/11/14 00:36:46;;;;;;;;;;;;;;;16.46;55.13;102037.88;5045998;28;963;-55
2022/11/14 00:39:30;;;;;;;;;;;;;;;17.62;52.43;102034.03;5058000;28;1123;-54
2022/11/14 00:42:13;;;;;;;;;;;;;;;16.58;54.83;102027.69;5057637;28;2259;-55
2022/11/14 00:44:57;;;;;;;;;;;;;;;16.23;55.41;102034.09;5058003;28;1152;-54
2022/11/14 00:47:41;;;;;;;;;;;;;;;16.01;55.30;102033.88;5057923;28;966;-56
2022/11/14 00:50:25;;;;;;;;;;;;;;;16.90;54.30;102030.00;5057844;28;1120;-56
2022/11/14 00:53:09;;;;;;;;;;;;;;;17.02;53.69;102018.97;5057962;28;1076;-55
2022/11/14 00:55:53;;;;;;;;;;;;;;;16.38;55.09;102020.69;5057443;28;1108;-55
2022/11/14 00:58:37;;;;;;;;;;;;;;;16.16;55.33;102027.88;5057424;28;1112;-54
2022/11/14 01:01:21;;;;;;;;;;;;;;;16.46;55.17;102019.47;5044079;28;1278;-55
2022/11/14 01:04:05;;;;;;;;;;;;;;;17.29;53.22;102013.66;5057565;28;1104;-54
2022/11/14 01:06:48;;;;;;;;;;;;;;;16.46;55.08;102010.41;5057164;28;1093;-54
2022/11/14 01:09:32;;;;;;;;;;;;;;;16.12;55.38;102010.22;5057546;28;1128;-53
2022/11/14 01:12:16;;;;;;;;;;;;;;;16.85;54.47;102002.41;5057287;28;1967;-53
2022/11/14 01:15:00;;;;;;;;;;;;;;;16.89;54.08;102004.44;5044622;28;1053;-54
2022/11/14 01:17:44;;;;;;;;;;;;;;;16.35;55.02;102004.69;5057674;28;1131;-56
2022/11/14 01:20:28;;;;;;;;;;;;;;;16.07;55.43;102000.81;5057091;28;958;-54
2022/11/14 01:23:12;;;;;;;;;;;;;;;17.26;53.58;101998.53;5057299;28;1073;-55
2022/11/14 01:26:00;;;;;;;;;;;;;;;16.76;54.59;101994.56;5057606;28;1072;-55
2022/11/14 01:28:44;;;;;;;;;;;;;;;16.35;55.14;101998.38;5057503;28;942;-55
2022/11/14 01:31:28;;;;;;;;;;;;;;;16.04;55.23;102001.28;5056604;28;1968;-53
2022/11/14 01:34:12;;;;;;;;;;;;;;;16.43;55.32;101998.00;5057107;28;1104;-55
2022/11/14 01:36:56;;;;;;;;;;;;;;;17.45;52.70;101990.84;5056934;28;1144;-56
2022/11/14 01:39:39;;;;;;;;;;;;;;;16.55;54.89;101989.72;5056905;28;1170;-53
2022/11/14 01:42:23;;;;;;;;;;;;;;;16.15;55.16;101988.63;5056602;28;2402;-56
2022/11/14 01:45:26;;;;;;;;;;;;;;;15.97;55.06;101995.09;5056770;28;1085;-54
2022/11/14 01:48:30;;;;;;;;;;;;;;;17.40;53.18;101998.19;5047224;28;1144;-53
2022/11/14 01:51:37;;;;;;;;;;;;;;;16.67;54.68;101998.75;5044300;28;1980;-55
2022/11/14 01:54:22;;;;;;;;;;;;;;;16.21;54.98;101981.34;5056117;28;1211;-56
2022/11/14 01:57:07;;;;;;;;;;;;;;;16.01;55.49;101993.53;5050623;28;831;-55
2022/11/14 01:59:53;;;;;;;;;;;;;;;17.65;52.60;101983.19;5044926;28;962;-55
2022/11/14 02:02:36;;;;;;;;;;;;;;;16.76;54.23;101983.56;5056277;28;1128;-54
2022/11/14 02:05:20;;;;;;;;;;;;;;;16.29;55.24;101988.38;5056464;28;1156;-55
2022/11/14 02:08:04;;;;;;;;;;;;;;;17.17;53.87;101982.69;5033215;28;930;-55
2022/11/14 02:10:48;;;;;;;;;;;;;;;17.12;53.65;101988.09;5056064;28;2228;-55
2022/11/14 02:13:32;;;;;;;;;;;;;;;16.51;54.85;101988.53;5056275;28;2538;-56
2022/11/14 02:16:16;;;;;;;;;;;;;;;16.15;54.99;101988.63;5056140;28;1166;-55
2022/11/14 02:19:00;;;;;;;;;;;;;;;15.99;54.97;101987.47;5041175;28;1155;-56
2022/11/14 02:21:44;;;;;;;;;;;;;;;16.69;54.52;101996.63;5042770;28;951;-56
2022/11/14 02:24:27;;;;;;;;;;;;;;;17.08;53.83;101980.34;5055819;28;1068;-54
2022/11/14 02:27:12;;;;;;;;;;;;;;;16.39;55.15;101981.16;5056423;28;1096;-55
2022/11/14 02:30:05;;;;;;;;;;;;;;;16.12;55.37;101985.53;5055903;28;1093;-55
2022/11/14 02:32:49;;;;;;;;;;;;;;;15.92;55.11;101986.72;5055702;28;1902;-53
2022/11/14 02:35:33;;;;;;;;;;;;;;;16.41;55.04;101986.41;5055984;28;970;-55
2022/11/14 02:38:17;;;;;;;;;;;;;;;17.70;52.49;101995.09;5055680;28;1155;-53
2022/11/14 02:41:01;;;;;;;;;;;;;;;16.62;54.88;101989.59;5043524;28;1010;-55
2022/11/14 02:43:45;;;;;;;;;;;;;;;16.25;55.04;101979.78;5051317;28;994;-52
2022/11/14 02:46:28;;;;;;;;;;;;;;;16.03;55.01;101985.91;5055954;28;1175;-55
2022/11/14 02:49:12;;;;;;;;;;;;;;;17.50;52.94;101986.53;5055752;28;1282;-56
2022/11/14 02:51:56;;;;;;;;;;;;;;;16.68;54.71;101981.22;5055617;28;1967;-55
2022/11/14 02:54:40;;;;;;;;;;;;;;;16.24;55.03;101978.09;5055622;28;981;-53
2022/11/14 02:57:24;;;;;;;;;;;;;;;16.01;55.02;101979.00;5051927;28;975;-55
2022/11/14 03:00:08;;;;;;;;;;;;;;;15.92;55.62;101984.00;5055879;28;1119;-52
2022/11/14 03:02:52;;;;;;;;;;;;;;;17.55;52.68;101970.09;5055444;28;1136;-52
2022/11/14 03:05:36;;;;;;;;;;;;;;;16.68;54.50;101981.22;5055511;28;1123;-53
2022/11/14 03:08:20;;;;;;;;;;;;;;;16.21;55.06;101984.09;5046070;28;857;-56
2022/11/14 03:11:04;;;;;;;;;;;;;;;17.13;53.90;101987.84;5055350;28;1914;-54
2022/11/14 03:13:48;;;;;;;;;;;;;;;17.13;53.62;101981.50;5046863;28;966;-56
2022/11/14 03:16:32;;;;;;;;;;;;;;;16.46;54.81;101981.03;5055378;28;1263;-52
2022/11/14 03:19:16;;;;;;;;;;;;;;;16.19;55.16;101989.00;5055069;28;1092;-54
2022/11/14 03:22:01;;;;;;;;;;;;;;;16.01;55.08;101981.75;5059654;28;1100;-56
2022/11/14 03:24:45;;;;;;;;;;;;;;;16.67;54.70;101987.78;5059488;28;1124;-55
2022/11/14 03:27:28;;;;;;;;;;;;;;;17.12;53.75;101988.09;5059434;28;1100;-55
2022/11/14 03:30:13;;;;;;;;;;;;;;;16.34;55.33;101992.06;5059447;28;1068;-56
2022/11/14 03:32:57;;;;;;;;;;;;;;;16.09;55.22;101984.13;5058826;28;1914;-56
2022/11/14 03:35:41;;;;;;;;;;;;;;;17.10;53.67;101978.16;5059191;28;1159;-57
2022/11/14 03:38:25;;;;;;;;;;;;;;;17.00;53.45;101988.97;5059196;28;1191;-52
2022/11/14 03:41:09;;;;;;;;;;;;;;;16.43;54.74;101993.34;5047805;28;985;-54
2022/11/14 03:43:53;;;;;;;;;;;;;;;16.13;54.85;101987.19;5055555;28;947;-53
2022/11/14 03:46:37;;;;;;;;;;;;;;;15.95;54.75;101986.28;5059067;28;1116;-55
2022/11/14 03:49:21;;;;;;;;;;;;;;;17.29;53.18;101994.41;5058971;28;954;-54
2022/11/14 03:52:05;;;;;;;;;;;;;;;16.68;54.58;101991.38;5058979;28;1909;-53
2022/11/14 03:54:49;;;;;;;;;;;;;;;16.23;55.17;101984.69;5058955;28;1210;-55
2022/11/14 03:57:33;;;;;;;;;;;;;;;17.07;53.98;101995.16;5058565;28;863;-56
2022/11/14 04:00:17;;;;;;;;;;;;;;;17.28;52.79;102001.03;5058876;28;1144;-53
2022/11/14 04:03:01;;;;;;;;;;;;;;;16.51;54.55;101991.28;5045777;28;1017;-53
2022/11/14 04:05:45;;;;;;;;;;;;;;;16.19;54.91;101999.97;5043516;28;1136;-55
2022/11/14 04:08:29;;;;;;;;;;;;;;;16.76;54.41;102000.03;5058946;28;1159;-53
2022/11/14 04:11:13;;;;;;;;;;;;;;;17.25;52.84;101996.00;5058379;28;2436;-55
2022/11/14 04:13:57;;;;;;;;;;;;;;;16.41;54.81;101989.16;5058633;28;1112;-57
2022/11/14 04:16:41;;;;;;;;;;;;;;;16.13;55.03;101995.44;5045151;28;1025;-54
2022/11/14 04:19:25;;;;;;;;;;;;;;;16.51;54.75;101996.78;5058468;28;1093;-56
2022/11/14 04:22:09;;;;;;;;;;;;;;;17.27;52.70;102000.16;5046559;28;967;-57
2022/11/14 04:24:52;;;;;;;;;;;;;;;16.48;54.47;102002.75;5058325;28;1088;-56
2022/11/14 04:27:36;;;;;;;;;;;;;;;16.18;54.92;102003.78;5058399;28;1179;-52
2022/11/14 04:30:20;;;;;;;;;;;;;;;15.95;54.80;102004.63;5058277;28;1270;-54
2022/11/14 04:33:04;;;;;;;;;;;;;;;17.01;53.66;102007.16;5041974;28;1906;-52
2022/11/14 04:35:48;;;;;;;;;;;;;;;16.83;53.83;102008.16;5057842;28;1132;-51
2022/11/14 04:38:32;;;;;;;;;;;;;;;16.24;55.08;102002.81;5058177;28;1160;-50
2022/11/14 04:41:16;;;;;;;;;;;;;;;16.79;54.08;102004.22;5057824;28;2256;-50
2022/11/14 04:44:00;;;;;;;;;;;;;;;17.06;53.21;102004.47;5057845;28;1061;-54
2022/11/14 04:46:44;;;;;;;;;;;;;;;16.42;54.71;102016.41;5058201;28;1096;-48
2022/11/14 04:49:28;;;;;;;;;;;;;;;16.12;55.07;102004.72;5057886;28;965;-53
2022/11/14 04:52:12;;;;;;;;;;;;;;;16.56;54.65;102014.22;5058117;28;1997;-50
2022/11/14 04:54:56;;;;;;;;;;;;;;;17.07;53.44;102005.31;5057976;28;1119;-53
2022/11/14 04:57:40;;;;;;;;;;;;;;;16.35;54.76;102018.41;5057112;28;1124;-55
2022/11/14 05:00:23;;;;;;;;;;;;;;;16.08;54.99;102016.19;5057794;28;1191;-49
2022/11/14 05:03:07;;;;;;;;;;;;;;;15.86;54.81;102018.69;5057437;28;985;-52
2022/11/14 05:05:51;;;;;;;;;;;;;;;16.95;53.90;102023.78;5057581;28;1108;-52
2022/11/14 05:08:35;;;;;;;;;;;;;;;17.27;52.66;102019.41;5057382;28;1116;-50
2022/11/14 05:11:19;;;;;;;;;;;;;;;16.42;54.53;102018.28;5056224;28;2114;-52
2022/11/14 05:14:03;;;;;;;;;;;;;;;16.05;55.09;102005.69;5050923;28;848;-54
2022/11/14 05:16:47;;;;;;;;;;;;;;;16.64;54.79;102014.91;5045273;28;1010;-52
2022/11/14 05:19:31;;;;;;;;;;;;;;;17.52;51.92;102018.19;5057480;28;1109;-53
2022/11/14 05:22:15;;;;;;;;;;;;;;;16.52;54.45;102020.41;5057104;28;973;-55
2022/11/14 05:24:59;;;;;;;;;;;;;;;16.20;54.86;102021.69;5057334;28;1068;-53
2022/11/14 05:27:43;;;;;;;;;;;;;;;16.00;55.05;102027.53;5057317;28;1202;-57
2022/11/14 05:30:27;;;;;;;;;;;;;;;17.34;53.05;102032.19;5057255;28;962;-55
2022/11/14 05:33:11;;;;;;;;;;;;;;;16.57;54.49;102024.09;5048566;28;1902;-57
2022/11/14 05:35:54;;;;;;;;;;;;;;;16.17;55.13;102035.88;5057162;28;1117;-55
2022/11/14 05:38:38;;;;;;;;;;;;;;;15.95;54.83;102032.91;5056989;28;1215;-55
2022/11/14 05:41:22;;;;;;;;;;;;;;;17.19;53.19;102030.81;5055204;28;1892;-53
2022/11/14 05:44:06;;;;;;;;;;;;;;;16.76;53.62;102038.50;5054648;28;1140;-56
2022/11/14 05:46:50;;;;;;;;;;;;;;;16.25;54.72;102034.66;5050406;28;1018;-54
2022/11/14 05:49:34;;;;;;;;;;;;;;;16.01;55.03;102037.44;5057010;28;985;-54
2022/11/14 05:52:18;;;;;;;;;;;;;;;15.81;54.91;102047.91;5056688;28;1989;-53
2022/11/14 05:55:03;;;;;;;;;;;;;;;17.01;53.42;102044.75;5056948;28;1325;-55
2022/11/14 05:57:46;;;;;;;;;;;;;;;17.10;52.92;102033.13;5056390;28;1216;-54
2022/11/14 06:00:30;;;;;;;;;;;;;;;16.33;54.61;102042.53;5056730;28;1080;-54
2022/11/14 06:03:14;;;;;;;;;;;;;;;16.07;54.56;102041.13;5051370;28;1040;-57
2022/11/14 06:05:59;;;;;;;;;;;;;;;16.36;54.67;102047.53;5035734;28;1096;-54
2022/11/14 06:08:43;;;;;;;;;;;;;;;17.32;51.95;102037.94;5037649;28;1033;-54
2022/11/14 06:11:27;;;;;;;;;;;;;;;16.36;54.32;102042.06;5040649;28;1965;-52
2022/11/14 06:14:11;;;;;;;;;;;;;;;16.05;55.00;102035.88;5042960;28;1039;-55
2022/11/14 06:16:55;;;;;;;;;;;;;;;17.36;52.29;102041.00;5056161;28;1093;-54
2022/11/14 06:19:39;;;;;;;;;;;;;;;16.77;53.62;102045.66;5056552;28;1132;-54
2022/11/14 06:22:23;;;;;;;;;;;;;;;16.24;54.73;102041.22;5055889;28;1166;-53
2022/11/14 06:25:07;;;;;;;;;;;;;;;16.05;54.87;102044.13;5056267;28;1175;-53
2022/11/14 06:27:51;;;;;;;;;;;;;;;15.91;55.02;102045.44;5056197;28;1057;-55
2022/11/14 06:30:35;;;;;;;;;;;;;;;16.22;54.58;102040.66;5056159;28;1108;-51
2022/11/14 06:33:19;;;;;;;;;;;;;;;17.90;50.94;102040.53;5055823;28;1914;-56
2022/11/14 06:36:04;;;;;;;;;;;;;;;16.61;53.04;102043.69;5043868;28;994;-57
2022/11/14 06:38:48;;;;;;;;;;;;;;;16.73;53.00;102044.50;5056114;28;1093;-53
2022/11/14 06:41:31;;;;;;;;;;;;;;;16.74;52.54;102043.38;5058806;28;1880;-52
2022/11/14 06:44:16;;;;;;;;;;;;;;;16.19;51.15;102044.69;5042026;28;990;-54
2022/11/14 06:47:00;;;;;;;;;;;;;;;16.74;52.62;102037.06;5055487;28;1009;-56
2022/11/14 06:49:44;;;;;;;;;;;;;;;16.28;51.49;102041.59;5055664;28;925;-52
2022/11/14 06:52:29;;;;;;;;;;;;;;;17.40;52.08;102032.03;5055710;28;1965;-53
2022/11/14 06:55:13;;;;;;;;;;;;;;;16.79;52.75;102039.94;5055713;28;1175;-49
2022/11/14 06:57:57;;;;;;;;;;;;;;;18.53;50.00;102032.88;5055236;28;875;-52
2022/11/14 07:00:41;;;;;;;;;;;;;;;17.20;51.74;102031.66;5055396;28;1125;-51
2022/11/14 07:03:25;;;;;;;;;;;;;;;16.84;50.23;102036.44;5055761;28;1183;-53
2022/11/14 07:06:10;;;;;;;;;;;;;;;17.36;51.63;102032.75;5055625;28;1116;-54
2022/11/14 07:08:54;;;;;;;;;;;;;;;16.70;50.85;102033.97;5055650;28;1093;-51
2022/11/14 07:11:37;;;;;;;;;;;;;;;17.55;51.45;102027.88;5042647;28;2055;-52
2022/11/14 07:14:21;;;;;;;;;;;;;;;17.04;51.64;102028.63;5055485;28;1124;-47
2022/11/14 07:17:05;;;;;;;;;;;;;;;17.45;51.84;102026.59;5055563;28;1069;-54
2022/11/14 07:19:49;;;;;;;;;;;;;;;17.50;51.89;102027.78;5055508;28;1255;-49
2022/11/14 07:22:33;;;;;;;;;;;;;;;16.88;50.71;102030.22;5055304;28;1084;-52
2022/11/14 07:25:17;;;;;;;;;;;;;;;16.61;49.55;102035.44;5043448;28;947;-51
2022/11/14 07:28:01;;;;;;;;;;;;;;;17.88;51.19;102031.66;5055346;28;1073;-54
2022/11/14 07:30:45;;;;;;;;;;;;;;;16.87;51.16;102036.81;5055504;28;1168;-53
2022/11/14 07:33:30;;;;;;;;;;;;;;;16.82;51.03;102022.94;5055389;28;1139;-51
2022/11/14 07:36:14;;;;;;;;;;;;;;;17.16;51.80;102019.50;5055242;28;1108;-48
2022/11/14 07:38:57;;;;;;;;;;;;;;;17.76;51.49;102029.03;5055406;28;1021;-49
2022/11/14 07:41:41;;;;;;;;;;;;;;;18.42;50.30;102037.41;5054923;28;1900;-48
2022/11/14 07:44:25;;;;;;;;;;;;;;;17.30;51.04;102033.75;5043051;28;1025;-52
2022/11/14 07:47:09;;;;;;;;;;;;;;;18.27;51.17;102026.22;5043326;28;1724;-54
2022/11/14 07:49:53;;;;;;;;;;;;;;;17.30;51.01;102020.84;5045550;28;1778;-49
2022/11/14 07:52:37;;;;;;;;;;;;;;;17.01;49.79;102009.03;5054947;28;2221;-50
2022/11/14 07:55:21;;;;;;;;;;;;;;;17.75;51.04;102017.19;5055132;28;2150;-52
2022/11/14 07:58:05;;;;;;;;;;;;;;;17.01;50.49;102012.66;5049215;28;1972;-48
2022/11/14 08:00:48;;;;;;;;;;;;;;;17.16;50.09;102014.00;5054740;28;1975;-46
2022/11/14 08:03:32;;;;;;;;;;;;;;;17.11;51.06;102012.00;5055046;28;1958;-46
2022/11/14 08:06:50;;;;;;;;;;;;;;;18.05;50.93;102032.53;5053568;28;1120;-52
2022/11/14 08:09:35;;;;;;;;;;;;;;;17.88;50.95;102032.53;5058414;28;1097;-47
2022/11/14 08:12:18;;;;;;;;;;;;;;;17.26;50.34;102019.66;5047148;28;1979;-48
2022/11/14 08:15:02;;;;;;;;;;;;;;;16.94;49.20;102022.94;5055626;28;1304;-52
2022/11/14 08:17:47;;;;;;;;;;;;;;;17.43;50.98;102031.53;5058271;28;1068;-51
2022/11/14 08:20:31;;;;;;;;;;;;;;;16.91;49.78;102021.53;5058643;28;1000;-48
2022/11/14 08:23:15;;;;;;;;;;;;;;;17.18;50.06;102014.56;5058136;28;934;-46
2022/11/14 08:25:59;;;;;;;;;;;;;;;17.23;50.73;102020.97;5058368;28;1101;-50
2022/11/14 08:28:43;;;;;;;;;;;;;;;16.67;49.94;102017.16;5058129;28;1128;-51
2022/11/14 08:31:27;;;;;;;;;;;;;;;17.47;50.86;102009.03;5057939;28;1962;-50
2022/11/14 08:34:10;;;;;;;;;;;;;;;16.87;50.09;102016.72;5066892;28;1944;-48
2022/11/14 08:36:55;;;;;;;;;;;;;;;17.75;50.58;102011.69;5058259;28;1100;-48
2022/11/14 08:39:40;;;;;;;;;;;;;;;16.91;50.85;102016.03;5058306;28;1108;-52
2022/11/14 08:42:24;;;;;;;;;;;;;;;17.02;50.19;102010.72;5058577;28;1203;-53
2022/11/14 08:45:08;;;;;;;;;;;;;;;17.11;50.41;102014.75;5058156;28;1093;-53
2022/11/14 08:47:52;;;;;;;;;;;;;;;18.07;50.19;102005.56;5057767;28;906;-52
2022/11/14 08:50:36;;;;;;;;;;;;;;;18.28;50.13;102008.59;5058021;28;1120;-47
2022/11/14 08:53:20;;;;;;;;;;;;;;;17.32;50.36;102002.19;5057816;28;1902;-47
2022/11/14 08:56:04;;;;;;;;;;;;;;;17.05;49.34;101999.22;5052604;28;1144;-51
2022/11/14 08:58:48;;;;;;;;;;;;;;;18.04;50.81;102008.81;5051433;28;1101;-51
2022/11/14 09:01:32;;;;;;;;;;;;;;;17.47;51.04;101992.53;5045458;28;1138;-52
2022/11/14 09:04:16;;;;;;;;;;;;;;;17.13;50.13;101987.00;5071473;28;1915;-48
2022/11/14 09:07:00;;;;;;;;;;;;;;;17.44;50.58;101991.09;5057362;28;1353;-53
2022/11/14 09:09:44;;;;;;;;;;;;;;;17.23;50.58;101988.00;5057689;28;1081;-54
2022/11/14 09:12:28;;;;;;;;;;;;;;;16.92;49.34;101997.63;5057671;28;1913;-51
2022/11/14 09:15:11;;;;;;;;;;;;;;;17.66;50.55;101985.69;5057554;28;1190;-49
2022/11/14 09:17:56;;;;;;;;;;;;;;;17.03;50.80;101980.25;5057286;28;1175;-45
2022/11/14 09:20:40;;;;;;;;;;;;;;;16.93;49.27;101980.88;5057428;28;1049;-50
2022/11/14 09:23:24;;;;;;;;;;;;;;;17.72;50.23;101978.34;5057228;28;841;-54
2022/11/14 09:26:08;;;;;;;;;;;;;;;17.03;50.38;101976.66;5057465;28;1038;-47
2022/11/14 09:28:52;;;;;;;;;;;;;;;17.09;50.16;101981.97;5057341;28;1152;-52
2022/11/14 09:31:36;;;;;;;;;;;;;;;17.20;50.51;101977.50;5057237;28;2144;-54
2022/11/14 09:34:20;;;;;;;;;;;;;;;16.94;49.10;101962.47;5044114;28;1955;-51
2022/11/14 09:37:04;;;;;;;;;;;;;;;17.08;49.86;101961.09;5057055;28;1140;-48
2022/11/14 09:39:48;;;;;;;;;;;;;;;16.95;50.31;101964.16;5057187;28;962;-53
2022/11/14 09:42:35;;;;;;;;;;;;;;;18.27;49.86;101962.88;5057002;28;1223;-51
2022/11/14 09:45:19;;;;;;;;;;;;;;;18.09;50.71;101962.13;5056931;28;1124;-51
2022/11/14 09:48:06;;;;;;;;;;;;;;;17.35;50.31;101974.19;5056690;28;855;-53
2022/11/14 09:50:52;;;;;;;;;;;;;;;17.05;49.25;101958.00;5041684;28;1184;-55
2022/11/14 09:53:36;;;;;;;;;;;;;;;16.92;48.36;101948.16;5057211;28;1057;-53
2022/11/14 09:56:24;;;;;;;;;;;;;;;17.83;50.70;101949.06;5056802;28;1010;-52
2022/11/14 09:59:09;;;;;;;;;;;;;;;17.13;49.93;101954.03;5056810;28;1171;-54
2022/11/14 10:02:12;;;;;;;;;;;;;;;16.90;48.85;101950.31;5035648;28;1261;-53
2022/11/14 10:04:59;;;;;;;;;;;;;;;17.56;50.18;101942.34;5025057;28;935;-56
2022/11/14 10:07:46;;;;;;;;;;;;;;;16.97;49.59;101940.03;5036447;28;1112;-52
2022/11/14 10:10:50;;;;;;;;;;;;;;;16.80;48.64;101939.13;5036405;28;1088;-53
2022/11/14 10:13:34;;;;;;;;;;;;;;;18.08;49.61;101934.84;5026068;28;1045;-54
2022/11/14 10:16:37;;;;;;;;;;;;;;;17.02;50.08;101939.28;5024544;28;1230;-55
2022/11/14 10:19:24;;;;;;;;;;;;;;;18.95;49.46;101930.31;5017799;28;1089;-56
2022/11/14 10:22:37;;;;;;;;;;;;;;;17.67;50.68;101931.50;5036325;28;1167;-52
2022/11/14 10:25:22;;;;;;;;;;;;;;;17.64;50.70;101932.81;5030700;28;1424;-49
2022/11/14 10:28:12;;;;;;;;;;;;;;;17.40;50.66;101927.53;5036109;28;1159;-53
2022/11/14 10:31:04;;;;;;;;;;;;;;;18.73;49.74;101926.78;5035344;28;1084;-51
2022/11/14 10:34:07;;;;;;;;;;;;;;;18.18;50.45;101931.41;5039259;28;1952;-52
2022/11/14 10:37:06;;;;;;;;;;;;;;;17.47;50.05;101932.84;5030601;28;970;-51
2022/11/14 10:39:50;;;;;;;;;;;;;;;17.16;48.84;101915.88;5031797;28;1089;-53
2022/11/14 10:42:35;;;;;;;;;;;;;;;16.99;48.27;101913.13;5034935;28;938;-52
2022/11/14 10:45:24;;;;;;;;;;;;;;;17.75;50.19;101911.81;5034116;28;1128;-48
2022/11/14 10:48:09;;;;;;;;;;;;;;;17.16;49.44;101913.13;5028556;28;833;-53
2022/11/14 10:50:59;;;;;;;;;;;;;;;17.15;49.09;101905.13;5036046;28;1100;-50
2022/11/14 10:53:49;;;;;;;;;;;;;;;17.32;50.21;101907.88;5035770;28;1060;-50
2022/11/14 10:56:33;;;;;;;;;;;;;;;17.23;49.85;101904.72;5035511;28;1097;-50
2022/11/14 10:59:17;;;;;;;;;;;;;;;17.90;50.06;101914.75;5035597;28;1139;-49
2022/11/14 11:02:01;;;;;;;;;;;;;;;17.12;50.15;101913.88;5047914;28;1147;-52
2022/11/14 11:04:45;;;;;;;;;;;;;;;17.50;50.09;101920.53;5055152;28;1100;-53
2022/11/14 11:13:35;;;;;;;;;;;;;;;17.48;50.14;101915.28;5055488;28;993;-50
2022/11/14 11:16:23;;;;;;;;;;;;;;;17.02;49.35;101920.84;5055613;28;1092;-53
2022/11/14 11:19:33;;;;;;;;;;;;;;;18.06;49.77;101913.09;5055546;28;978;-53
2022/11/14 11:22:25;;;;;;;;;;;;;;;17.11;49.73;101907.56;5055208;28;1097;-52
2022/11/14 11:25:28;;;;;;;;;;;;;;;16.94;48.43;101902.03;5055226;28;1008;-52
2022/11/14 11:28:16;;;;;;;;;;;;;;;17.19;48.45;101903.53;5055470;28;1151;-48
2022/11/14 11:31:01;;;;;;;;;;;;;;;17.19;49.96;101904.38;5055531;28;1081;-52
2022/11/14 11:33:45;;;;;;;;;;;;;;;16.83;48.90;101897.41;5047503;28;2050;-51
2022/11/14 11:36:29;;;;;;;;;;;;;;;17.16;48.86;101904.06;5055145;28;1064;-53
2022/11/14 11:39:19;;;;;;;;;;;;;;;17.42;49.79;101888.81;5041528;28;983;-51
2022/11/14 11:42:04;;;;;;;;;;;;;;;16.96;49.00;101899.88;5057852;28;1136;-55
2022/11/14 11:44:48;;;;;;;;;;;;;;;17.69;49.54;101901.81;5044257;28;1148;-50
2022/11/14 11:47:33;;;;;;;;;;;;;;;16.96;49.50;101899.88;5059003;28;1286;-54
2022/11/14 11:50:18;;;;;;;;;;;;;;;18.61;48.85;101896.63;5057980;28;1175;-50
2022/11/14 11:53:02;;;;;;;;;;;;;;;17.40;50.02;101891.81;5043361;28;1978;-54
2022/11/14 11:55:46;;;;;;;;;;;;;;;17.15;49.19;101889.47;5058898;28;1073;-54
2022/11/14 11:58:32;;;;;;;;;;;;;;;17.01;48.88;101886.25;5043893;28;1117;-53
2022/11/14 12:01:16;;;;;;;;;;;;;;;17.29;49.74;101892.69;5056250;28;1049;-53
2022/11/14 12:04:00;;;;;;;;;;;;;;;17.97;49.95;101892.59;5045256;28;2344;-53
2022/11/14 12:06:45;;;;;;;;;;;;;;;18.41;49.49;101894.47;5058791;28;1136;-53
2022/11/14 12:09:35;;;;;;;;;;;;;;;17.42;49.96;101892.38;5043459;28;1061;-55
2022/11/14 12:12:27;;;;;;;;;;;;;;;17.20;48.74;101878.56;5043146;28;1902;-55
2022/11/14 12:15:30;;;;;;;;;;;;;;;17.04;48.70;101879.38;5046409;28;1140;-55
2022/11/14 12:18:17;;;;;;;;;;;;;;;17.54;50.00;101881.25;5058441;28;1295;-53
2022/11/14 12:21:01;;;;;;;;;;;;;;;17.26;49.66;101877.56;5057260;28;1076;-53
2022/11/14 12:23:51;;;;;;;;;;;;;;;18.20;49.75;101885.16;5057134;28;1100;-52
2022/11/14 12:26:47;;;;;;;;;;;;;;;17.34;49.83;101879.03;5057237;28;1120;-52
2022/11/14 12:29:40;;;;;;;;;;;;;;;17.09;48.74;101874.81;5058437;28;1080;-53
2022/11/14 12:32:27;;;;;;;;;;;;;;;17.44;49.14;101872.88;5042636;28;1975;-51
2022/11/14 12:35:38;;;;;;;;;;;;;;;17.15;49.69;101878.47;5039951;28;1077;-52
2022/11/14 12:38:22;;;;;;;;;;;;;;;17.03;48.07;101884.06;5040275;28;1112;-49
2022/11/14 12:41:07;;;;;;;;;;;;;;;17.49;48.96;101875.69;5037892;28;1207;-51
2022/11/14 12:43:51;;;;;;;;;;;;;;;17.18;49.71;101879.88;5052287;28;1140;-52
2022/11/14 12:46:54;;;;;;;;;;;;;;;16.88;48.74;101883.78;5058079;28;1077;-51
2022/11/14 12:49:47;;;;;;;;;;;;;;;17.57;49.13;101878.03;5057795;28;911;-49
2022/11/14 12:52:50;;;;;;;;;;;;;;;17.01;48.81;101883.50;5057347;28;1886;-49
2022/11/14 12:55:34;;;;;;;;;;;;;;;16.72;48.13;101882.69;5043046;28;1109;-53
2022/11/14 12:58:30;;;;;;;;;;;;;;;17.98;48.98;101872.25;5058199;28;1017;-50
2022/11/14 13:01:14;;;;;;;;;;;;;;;17.03;49.44;101880.50;5042349;28;1168;-52
2022/11/14 13:04:16;;;;;;;;;;;;;;;17.60;49.61;101876.69;5059402;28;2228;-50
2022/11/14 13:07:16;;;;;;;;;;;;;;;17.21;49.98;101868.41;5057822;28;1148;-52
2022/11/14 13:10:12;;;;;;;;;;;;;;;16.96;48.97;101877.06;5057582;28;1247;-54
2022/11/14 13:22:37;;;;;;;;;;;;;;;17.49;49.96;101861.09;5047332;28;1033;-53
2022/11/14 13:25:22;;;;;;;;;;;;;;;17.17;48.48;101870.81;5042086;28;927;-49
2022/11/14 13:28:38;;;;;;;;;;;;;;;17.02;47.72;101860.41;5057202;28;1096;-48
2022/11/14 13:31:42;;;;;;;;;;;;;;;16.79;47.20;101860.53;5003524;28;1910;-51
2022/11/14 13:34:26;;;;;;;;;;;;;;;17.33;49.28;101860.88;5054755;28;2209;-51
2022/11/14 13:37:29;;;;;;;;;;;;;;;17.78;49.71;101862.63;5056679;28;1057;-52
2022/11/14 13:40:12;;;;;;;;;;;;;;;18.46;49.65;101858.75;5057531;28;1092;-53
2022/11/14 13:42:59;;;;;;;;;;;;;;;17.56;49.68;101851.59;5044573;28;951;-57
2022/11/14 13:45:57;;;;;;;;;;;;;;;17.09;48.82;101855.56;5056803;28;1120;-51
2022/11/14 13:49:03;;;;;;;;;;;;;;;17.67;49.48;101854.47;5041602;28;1085;-53
2022/11/14 13:51:47;;;;;;;;;;;;;;;17.19;49.71;101851.31;5047237;28;1901;-52
2022/11/14 13:54:31;;;;;;;;;;;;;;;17.06;48.50;101866.25;5041845;28;1097;-49
2022/11/14 13:57:35;;;;;;;;;;;;;;;17.93;49.27;101862.00;5056728;28;1065;-48
2022/11/14 14:00:19;;;;;;;;;;;;;;;17.11;49.24;101869.09;5056537;28;1053;-51
2022/11/14 14:03:12;;;;;;;;;;;;;;;18.61;49.09;101869.09;5055288;28;1884;-50
2022/11/14 14:06:14;;;;;;;;;;;;;;;17.63;50.06;101870.66;5045776;28;1135;-51
2022/11/14 14:09:16;;;;;;;;;;;;;;;17.22;48.88;101864.56;5042556;28;923;-50
2022/11/14 14:12:07;;;;;;;;;;;;;;;16.99;47.68;101860.91;5056380;28;1902;-52
2022/11/14 14:15:10;;;;;;;;;;;;;;;17.55;49.28;101857.34;5034220;28;986;-51
2022/11/14 14:18:09;;;;;;;;;;;;;;;17.05;48.55;101859.06;5056654;28;1041;-50
2022/11/14 14:20:53;;;;;;;;;;;;;;;17.79;49.21;101858.78;5056355;28;1022;-49
2022/11/14 14:23:56;;;;;;;;;;;;;;;17.06;48.86;101845.09;5056235;28;1085;-55
2022/11/14 14:26:54;;;;;;;;;;;;;;;18.07;49.05;101854.19;5055963;28;986;-56
2022/11/14 14:29:41;;;;;;;;;;;;;;;17.22;49.21;101834.31;5056349;28;930;-55
2022/11/14 14:32:25;;;;;;;;;;;;;;;17.28;49.41;101836.91;5048946;28;1909;-57
2022/11/14 14:35:35;;;;;;;;;;;;;;;17.32;49.02;101839.13;5055849;28;1053;-58
2022/11/14 14:38:23;;;;;;;;;;;;;;;17.74;49.31;101844.97;5052224;28;1057;-54
2022/11/14 14:41:08;;;;;;;;;;;;;;;17.64;49.65;101832.97;5038262;28;1104;-56
2022/11/14 14:43:53;;;;;;;;;;;;;;;17.14;48.79;101838.34;5027163;28;1126;-56